Have a Safe July 4th! 

Flight Track Log - Related Links

Times and Time Zones

All times are in EDT time to prevent confusion due to time zone crossing. See the DAL1515 flight status page for this flight to view local times or setup timezone preferences in your user account.

Time Position Orientation Groundspeed Altitude Reporting Facility
EDT Latitude Longitude Course Direction KTS MPH feet Rate Location/Type
Tue 08:10:45 PM 33.6497 -84.3583 343° North 437 503 3,200  Level Atlanta Center
Tue 08:11:45 PM 33.6647 -84.2758 78° East 325 374 6,400 3,150 Climbing Atlanta Center
Tue 08:12:00 PM 33.9246 -84.1434 North  Level Estimated
Tue 08:12:45 PM 33.6897 -84.1936 70° East 293 337 9,500  Level Atlanta Center
Tue 08:13:00 PM 34.0205 -84.0481 North  Level Estimated
Tue 08:13:45 PM 33.7692 -84.1814 North 250 288 10,000  Level Atlanta Center
Tue 08:14:00 PM 34.1162 -83.9526 11° North  Level Estimated
Tue 08:14:45 PM 33.8650 -84.1989 351° North 296 341 10,100  Level Atlanta Center
Tue 08:15:00 PM 34.2351 -83.9960 343° North  Level FlightAware Approximate
Tue 08:15:45 PM 33.9422 -84.2692 323° Northwest 305 351 12,900  Level Atlanta Center
Tue 08:16:00 PM 34.3540 -84.0394 343° North  Level FlightAware Approximate
Tue 08:16:45 PM 34.0319 -84.2794 355° North 323 372 15,200  Level Atlanta Center
Tue 08:17:45 PM 34.1592 -84.2772 North 366 421 18,500 2,800 Climbing Atlanta Center
Tue 08:18:45 PM 34.2719 -84.2800 359° North 392 451 20,800 1,950 Climbing Atlanta Center
Tue 08:19:45 PM 34.3742 -84.2603 North 407 468 22,400 2,000 Climbing Atlanta Center
Tue 08:20:45 PM 34.4911 -84.2328 11° North 419 482 24,800 1,950 Climbing Atlanta Center
Tue 08:21:45 PM 34.6039 -84.1825 20° North 424 488 26,300 1,600 Climbing Atlanta Center
Tue 08:22:45 PM 34.7231 -84.1094 27° Northeast 432 497 28,000 1,850 Climbing Atlanta Center
Tue 08:23:45 PM 34.8336 -84.0389 28° Northeast 437 503 30,000 1,850 Climbing Atlanta Center
Tue 08:24:45 PM 34.9464 -83.9703 27° Northeast 442 509 31,700 1,800 Climbing Atlanta Center
Tue 08:25:45 PM 35.0567 -83.9017 27° Northeast 447 514 33,600 1,150 Climbing Atlanta Center
Tue 08:26:45 PM 35.1631 -83.8381 26° Northeast 442 509 34,000 200 Climbing Atlanta Center
Tue 08:27:45 PM 35.2694 -83.7717 27° Northeast 436 502 34,000 350 Level Atlanta Center
Tue 08:28:45 PM 35.3797 -83.7050 26° Northeast 430 495 34,700 850 Climbing Atlanta Center
Tue 08:29:45 PM 35.4881 -83.6358 27° Northeast 430 495 35,700 900 Climbing Atlanta Center
Tue 08:30:45 PM 35.5964 -83.5689 27° Northeast 430 495 36,500 650 Climbing Atlanta Center
Tue 08:31:45 PM 35.7025 -83.5042 26° Northeast 430 495 37,000 250 Climbing Atlanta Center
Tue 08:32:45 PM 35.8106 -83.4344 28° Northeast 430 495 37,000  Level Atlanta Center
Tue 08:33:45 PM 35.9147 -83.3644 29° Northeast 424 488 37,000  Level Atlanta Center
Tue 08:34:45 PM 36.0269 -83.2967 26° Northeast 431 496 37,000  Level Atlanta Center
Tue 08:35:45 PM 36.1306 -83.2264 29° Northeast 431 496 37,000  Level Atlanta Center
Tue 08:36:45 PM 36.2408 -83.1583 26° Northeast 433 498 37,000  Level Atlanta Center
Tue 08:37:45 PM 36.3508 -83.0875 27° Northeast 433 498 37,000  Level Atlanta Center
Tue 08:38:49 PM 36.4633 -83.0156 27° Northeast 445 512 37,000  Level Indianapolis Center
Tue 08:39:51 PM 36.5736 -82.9439 28° Northeast 446 513 37,000  Level Indianapolis Center
Tue 08:40:53 PM 36.6828 -82.8725 28° Northeast 441 507 37,000  Level Indianapolis Center
Tue 08:41:54 PM 36.8081 -82.7867 29° Northeast 447 514 37,000  Level Indianapolis Center
Tue 08:42:56 PM 36.9189 -82.7156 27° Northeast 459 528 37,000  Level Indianapolis Center
Tue 08:43:57 PM 37.0289 -82.6458 27° Northeast 452 520 37,000  Level Indianapolis Center
Tue 08:44:59 PM 37.1383 -82.5750 27° Northeast 447 514 37,000  Level Indianapolis Center
Tue 08:46:00 PM 37.2481 -82.5042 27° Northeast 447 514 37,000  Level Indianapolis Center
Tue 08:47:02 PM 37.3753 -82.4211 27° Northeast 442 509 37,000  Level Indianapolis Center
Tue 08:48:03 PM 37.4853 -82.3494 27° Northeast 445 512 37,000  Level Indianapolis Center
Tue 08:49:05 PM 37.5936 -82.2767 28° Northeast 442 509 37,000  Level Indianapolis Center
Tue 08:50:06 PM 37.7031 -82.2025 28° Northeast 444 511 37,000  Level Indianapolis Center
Tue 08:51:07 PM 37.8139 -82.1297 27° Northeast 447 514 37,000  Level Indianapolis Center
Tue 08:52:09 PM 37.9228 -82.0575 28° Northeast 449 517 37,000  Level Indianapolis Center
Tue 08:53:10 PM 38.0325 -81.9825 28° Northeast 448 516 37,000  Level Indianapolis Center
Tue 08:54:12 PM 38.1475 -81.9172 24° Northeast 451 519 37,000  Level Indianapolis Center
Tue 08:55:13 PM 38.2650 -81.8606 21° North 450 518 37,000  Level Indianapolis Center
Tue 08:56:14 PM 38.3831 -81.7997 22° Northeast 455 524 37,000  Level Indianapolis Center
Tue 08:57:16 PM 38.4911 -81.6644 44° Northeast 460 529 37,000  Level Indianapolis Center
Tue 08:58:17 PM 38.5689 -81.5367 52° Northeast 463 533 37,000  Level Indianapolis Center
Tue 08:59:18 PM 38.6508 -81.4092 51° Northeast 462 532 37,000  Level Indianapolis Center
Tue 09:00:20 PM 38.7272 -81.2831 52° Northeast 474 545 37,000  Level Indianapolis Center
Tue 09:01:21 PM 38.8061 -81.1556 52° Northeast 465 535 37,000  Level Indianapolis Center
Tue 09:02:22 PM 38.8847 -81.0269 52° Northeast 460 529 37,000  Level Indianapolis Center
Tue 09:03:24 PM 38.9822 -80.8689 52° Northeast 469 540 37,000  Level Indianapolis Center
Tue 09:04:25 PM 39.0647 -80.7431 50° Northeast 462 532 37,000  Level Indianapolis Center
Tue 09:05:26 PM 39.1531 -80.6225 47° Northeast 462 532 37,000  Level Indianapolis Center
Tue 09:06:28 PM 39.2397 -80.4983 48° Northeast 465 535 37,000  Level Indianapolis Center
Tue 09:07:29 PM 39.3269 -80.3742 48° Northeast 465 535 37,000  Level Indianapolis Center
Tue 09:08:30 PM 39.4142 -80.2508 48° Northeast 466 536 37,000  Level Indianapolis Center
Tue 09:09:32 PM 39.5017 -80.1261 48° Northeast 467 537 37,000  Level Indianapolis Center
Tue 09:10:33 PM 39.5878 -80.0006 48° Northeast 467 537 37,000  Level Indianapolis Center
Tue 09:11:34 PM 39.6736 -79.8722 49° Northeast 469 540 37,000  Level Indianapolis Center
Tue 09:12:36 PM 39.7778 -79.7194 48° Northeast 471 542 37,000 -780 Level Indianapolis Center
Tue 09:13:37 PM 39.8644 -79.5936 48° Northeast 467 537 35,400 -1,625 Descending Indianapolis Center
Tue 09:15:00 PM 39.9861 -79.4153 48° Northeast 463 533 33,100 -1,007 Descending Cleveland Center
Tue 09:16:00 PM 40.0619 -79.3000 49° Northeast 463 533 33,000 -50 Descending Cleveland Center
Tue 09:17:00 PM 40.1481 -79.1681 49° Northeast 463 533 33,000  Level Cleveland Center
Tue 09:18:00 PM 40.2358 -79.0356 49° Northeast 463 533 33,000  Level Cleveland Center
Tue 09:19:00 PM 40.3197 -78.9083 49° Northeast 463 533 33,000  Level Cleveland Center
Tue 09:20:00 PM 40.4053 -78.7781 49° Northeast 463 533 33,000  Level Cleveland Center
Tue 09:21:39 PM 40.5581 -78.5461 49° Northeast 462 532 33,000  Level New York Center
Tue 09:22:39 PM 40.6439 -78.4108 50° Northeast 468 539 33,000  Level New York Center
Tue 09:23:39 PM 40.7317 -78.2783 49° Northeast 478 550 33,000  Level New York Center
Tue 09:24:39 PM 40.8192 -78.1453 49° Northeast 478 550 33,000  Level New York Center
Tue 09:25:39 PM 40.9047 -78.0089 50° Northeast 478 550 33,000  Level New York Center
Tue 09:26:39 PM 40.9939 -77.8781 48° Northeast 473 544 33,000  Level New York Center
Tue 09:27:39 PM 41.0781 -77.7603 47° Northeast 484 557 33,000 -750 Level New York Center
Tue 09:28:39 PM 41.1761 -77.6517 40° Northeast 478 550 31,500 -1,850 Descending New York Center
Tue 09:29:39 PM 41.2864 -77.5469 35° Northeast 472 543 29,300 -1,250 Descending New York Center
Tue 09:30:39 PM 41.3822 -77.4375 41° Northeast 465 535 29,000 -200 Descending New York Center
Tue 09:31:39 PM 41.4717 -77.2858 52° Northeast 456 525 28,900 -958 Descending New York Center
Tue 09:32:38 PM 41.5475 -77.1600 51° Northeast 472 543 27,100 -1,700 Descending New York Center
Tue 09:33:39 PM 41.6297 -77.0208 52° Northeast 478 550 25,500 -1,041 Descending New York Center
Tue 09:34:39 PM 41.7119 -76.8842 51° Northeast 478 550 25,000 -250 Descending New York Center
Tue 09:35:39 PM 41.7939 -76.7469 51° Northeast 473 544 25,000  Level New York Center
Tue 09:36:39 PM 41.8800 -76.6069 50° Northeast 473 544 25,000  Level New York Center
Tue 09:37:39 PM 41.9617 -76.4664 52° Northeast 473 544 25,000 -357 Level New York Center
Tue 09:39:27 PM 42.1125 -76.2158 51° Northeast 481 554 24,000 -355 Descending Boston Center
Tue 09:40:28 PM 42.1861 -76.0689 56° Northeast 474 545 24,000  Level Boston Center
Tue 09:41:29 PM 42.2411 -75.9067 65° Northeast 467 537 24,000  Level Boston Center
Tue 09:42:27 PM 42.2983 -75.7358 66° East 455 524 24,000  Level Boston Center
Tue 09:43:27 PM 42.3531 -75.5700 66° East 455 524 24,000 -248 Level Boston Center
Tue 09:44:28 PM 42.3908 -75.4003 73° East 461 531 23,500 -1,082 Descending Boston Center
Tue 09:45:29 PM 42.4286 -75.2306 73° East 466 536 21,800 -2,218 Descending Boston Center
Tue 09:46:27 PM 42.4681 -75.0689 72° East 461 531 19,100 -2,723 Descending Boston Center
Tue 09:47:28 PM 42.5028 -74.9072 74° East 450 518 16,400 -2,508 Descending Boston Center
Tue 09:48:29 PM 42.5372 -74.7536 73° East 443 510 14,000 -2,400 Descending Boston Center
Tue 09:48:38 PM 42.5442 -74.7256 71° East 424 488 13,600 -2,000 Descending Boston Center
Tue 09:48:44 PM 42.5464 -74.7172 70° East 422 486 13,500 -2,327 Descending Boston Center
Tue 09:49:27 PM 42.5672 -74.6164 74° East 411 473 11,700 -2,262 Descending Boston Center
Tue 09:49:45 PM 42.5783 -74.5717 71° East 403 464 11,200 -800 Descending Boston Center
Tue 09:50:27 PM 42.6033 -74.4653 72° East 396 456 10,900 -600 Descending Boston Center
Tue 09:50:45 PM 42.6186 -74.4292 60° Northeast 360 414 10,600 -800 Descending Boston Center
Tue 09:51:27 PM 42.6467 -74.3681 58° Northeast 347 399 10,100 -885 Descending Boston Center
Tue 09:51:46 PM 42.6661 -74.3292 56° Northeast 296 341 9,700 -1,672 Descending Boston Center
Tue 09:52:28 PM 42.6964 -74.2650 57° Northeast 311 358 8,400 -1,900 Descending Boston Center
Tue 09:52:46 PM 42.7133 -74.2372 50° Northeast 293 337 7,800 -1,574 Descending Boston Center
Tue 09:53:29 PM 42.7414 -74.1817 55° Northeast 293 337 6,800 -1,672 Descending Boston Center
Tue 09:53:47 PM 42.7606 -74.1453 54° Northeast 293 337 6,100 -1,932 Descending Boston Center
Tue 09:54:28 PM 42.7950 -74.0869 51° Northeast 288 331 4,900 -1,800 Descending Boston Center
Tue 09:54:47 PM 42.8119 -74.0589 51° Northeast 291 335 4,300 -1,770 Descending Boston Center
Tue 09:55:29 PM 42.8483 -74.0006 50° Northeast 288 331 3,100 -1,300 Descending Boston Center
Tue 09:55:47 PM 42.8611 -73.9753 55° Northeast 293 337 3,000 -393 Descending Boston Center
Tue 09:56:30 PM 42.8828 -73.9078 66° East 281 323 2,700 -492 Descending Boston Center
Tue 09:56:48 PM 42.8894 -73.8797 72° East 259 298 2,500 -737 Descending Boston Center
Tue 09:57:27 PM 42.8733 -73.8369 117° Southeast 231 266 2,000 -500 Descending Boston Center
Tue 09:57:48 PM 42.8547 -73.8167 141° Southeast 207 238 2,000  Level Boston Center
Tue 09:58:28 PM 42.8703 -73.7406 74° East 226 260 2,000 -787 Level Boston Center
Tue 09:58:49 PM 42.8089 -73.8100 220° Southwest 145 167 1,200 -1,024 Descending Boston Center
Tue 09:59:50 PM 42.7714 -73.8092 179° South 105 121 600 -590 Descending Boston Center

Login

Don't have an account? Register now (free) for customized features, flight alerts, and more!